sensor_id;sensor_type;location;lat;lon;timestamp;P1;durP1;ratioP1;P2;durP2;ratioP2
68608;SDS011;55581;46.718;7.690;2022-11-04T00:01:54;1.85;;;0.10;;
68608;SDS011;55581;46.718;7.690;2022-11-04T00:04:21;1.05;;;0.10;;
68608;SDS011;55581;46.718;7.690;2022-11-04T00:06:48;1.13;;;0.20;;
68608;SDS011;55581;46.718;7.690;2022-11-04T00:09:18;1.23;;;0.10;;
68608;SDS011;55581;46.718;7.690;2022-11-04T00:11:47;0.97;;;0.20;;
68608;SDS011;55581;46.718;7.690;2022-11-04T00:14:31;2.72;;;0.10;;
68608;SDS011;55581;46.718;7.690;2022-11-04T00:17:00;0.50;;;0.03;;
68608;SDS011;55581;46.718;7.690;2022-11-04T00:19:55;0.70;;;0.10;;
68608;SDS011;55581;46.718;7.690;2022-11-04T00:22:40;0.60;;;0.10;;
68608;SDS011;55581;46.718;7.690;2022-11-04T00:25:25;0.40;;;0.10;;
68608;SDS011;55581;46.718;7.690;2022-11-04T00:30:55;0.82;;;0.10;;
68608;SDS011;55581;46.718;7.690;2022-11-04T00:33:22;0.77;;;0.10;;
68608;SDS011;55581;46.718;7.690;2022-11-04T00:35:52;0.73;;;0.10;;
68608;SDS011;55581;46.718;7.690;2022-11-04T00:38:19;0.50;;;0.10;;
68608;SDS011;55581;46.718;7.690;2022-11-04T00:40:44;0.70;;;0.10;;
68608;SDS011;55581;46.718;7.690;2022-11-04T00:43:10;1.27;;;0.10;;
68608;SDS011;55581;46.718;7.690;2022-11-04T00:45:39;0.65;;;0.10;;
68608;SDS011;55581;46.718;7.690;2022-11-04T00:48:05;0.60;;;0.10;;
68608;SDS011;55581;46.718;7.690;2022-11-04T00:50:30;2.33;;;0.13;;
68608;SDS011;55581;46.718;7.690;2022-11-04T00:52:59;1.83;;;0.10;;
68608;SDS011;55581;46.718;7.690;2022-11-04T00:55:26;3.13;;;0.10;;
68608;SDS011;55581;46.718;7.690;2022-11-04T00:57:51;0.40;;;0.00;;
68608;SDS011;55581;46.718;7.690;2022-11-04T01:00:17;2.92;;;0.10;;
68608;SDS011;55581;46.718;7.690;2022-11-04T01:02:44;0.50;;;0.10;;
68608;SDS011;55581;46.718;7.690;2022-11-04T01:05:12;0.63;;;0.10;;
68608;SDS011;55581;46.718;7.690;2022-11-04T01:07:41;0.50;;;0.10;;
68608;SDS011;55581;46.718;7.690;2022-11-04T01:10:06;0.63;;;0.10;;
68608;SDS011;55581;46.718;7.690;2022-11-04T01:12:34;0.70;;;0.10;;
68608;SDS011;55581;46.718;7.690;2022-11-04T01:14:59;1.67;;;0.10;;
68608;SDS011;55581;46.718;7.690;2022-11-04T01:17:25;0.70;;;0.10;;
68608;SDS011;55581;46.718;7.690;2022-11-04T01:19:50;0.50;;;0.10;;
68608;SDS011;55581;46.718;7.690;2022-11-04T01:22:18;0.50;;;0.10;;
68608;SDS011;55581;46.718;7.690;2022-11-04T01:24:46;0.53;;;0.10;;
68608;SDS011;55581;46.718;7.690;2022-11-04T01:27:12;1.15;;;0.10;;
68608;SDS011;55581;46.718;7.690;2022-11-04T01:29:37;0.90;;;0.10;;
68608;SDS011;55581;46.718;7.690;2022-11-04T01:32:07;0.65;;;0.10;;
68608;SDS011;55581;46.718;7.690;2022-11-04T01:34:33;0.63;;;0.10;;
68608;SDS011;55581;46.718;7.690;2022-11-04T01:36:58;0.70;;;0.10;;
68608;SDS011;55581;46.718;7.690;2022-11-04T01:39:26;0.45;;;0.10;;
68608;SDS011;55581;46.718;7.690;2022-11-04T01:41:52;1.00;;;0.10;;
68608;SDS011;55581;46.718;7.690;2022-11-04T01:47:19;0.40;;;0.00;;
68608;SDS011;55581;46.718;7.690;2022-11-04T01:50:37;0.75;;;0.10;;
68608;SDS011;55581;46.718;7.690;2022-11-04T01:55:20;1.95;;;0.20;;
68608;SDS011;55581;46.718;7.690;2022-11-04T01:57:51;0.57;;;0.10;;
68608;SDS011;55581;46.718;7.690;2022-11-04T02:00:20;0.90;;;0.13;;
68608;SDS011;55581;46.718;7.690;2022-11-04T02:05:21;0.50;;;0.10;;
68608;SDS011;55581;46.718;7.690;2022-11-04T02:07:52;1.83;;;0.10;;
68608;SDS011;55581;46.718;7.690;2022-11-04T02:10:22;0.73;;;0.10;;
68608;SDS011;55581;46.718;7.690;2022-11-04T02:12:50;0.68;;;0.10;;
68608;SDS011;55581;46.718;7.690;2022-11-04T02:18:12;0.40;;;0.10;;
68608;SDS011;55581;46.718;7.690;2022-11-04T02:20:54;1.05;;;0.20;;
68608;SDS011;55581;46.718;7.690;2022-11-04T02:38:00;5.38;;;0.10;;
68608;SDS011;55581;46.718;7.690;2022-11-04T02:40:56;0.50;;;0.10;;
68608;SDS011;55581;46.718;7.690;2022-11-04T02:49:17;0.60;;;0.00;;
68608;SDS011;55581;46.718;7.690;2022-11-04T02:51:52;1.05;;;0.10;;
68608;SDS011;55581;46.718;7.690;2022-11-04T02:54:26;0.70;;;0.10;;
68608;SDS011;55581;46.718;7.690;2022-11-04T02:57:00;0.30;;;0.10;;
68608;SDS011;55581;46.718;7.690;2022-11-04T02:59:34;0.40;;;0.10;;
68608;SDS011;55581;46.718;7.690;2022-11-04T03:02:05;1.75;;;0.10;;
68608;SDS011;55581;46.718;7.690;2022-11-04T03:04:42;1.70;;;0.10;;
68608;SDS011;55581;46.718;7.690;2022-11-04T03:07:11;1.27;;;0.13;;
68608;SDS011;55581;46.718;7.690;2022-11-04T03:09:40;0.80;;;0.10;;
68608;SDS011;55581;46.718;7.690;2022-11-04T03:12:11;1.02;;;0.20;;
68608;SDS011;55581;46.718;7.690;2022-11-04T03:14:47;0.40;;;0.10;;
68608;SDS011;55581;46.718;7.690;2022-11-04T03:18:02;0.90;;;0.10;;
68608;SDS011;55581;46.718;7.690;2022-11-04T03:20:27;0.90;;;0.20;;
68608;SDS011;55581;46.718;7.690;2022-11-04T03:22:56;1.52;;;0.10;;
68608;SDS011;55581;46.718;7.690;2022-11-04T03:26:08;0.80;;;0.10;;
68608;SDS011;55581;46.718;7.690;2022-11-04T03:31:02;1.48;;;0.10;;
68608;SDS011;55581;46.718;7.690;2022-11-04T03:33:32;0.80;;;0.10;;
68608;SDS011;55581;46.718;7.690;2022-11-04T03:36:02;0.47;;;0.10;;
68608;SDS011;55581;46.718;7.690;2022-11-04T03:38:28;0.88;;;0.10;;
68608;SDS011;55581;46.718;7.690;2022-11-04T03:40:54;0.40;;;0.10;;
68608;SDS011;55581;46.718;7.690;2022-11-04T03:43:23;0.87;;;0.10;;
68608;SDS011;55581;46.718;7.690;2022-11-04T03:45:52;0.70;;;0.10;;
68608;SDS011;55581;46.718;7.690;2022-11-04T03:48:18;0.50;;;0.10;;
68608;SDS011;55581;46.718;7.690;2022-11-04T03:50:44;1.23;;;0.10;;
68608;SDS011;55581;46.718;7.690;2022-11-04T03:53:13;0.60;;;0.10;;
68608;SDS011;55581;46.718;7.690;2022-11-04T04:00:59;0.70;;;0.10;;
68608;SDS011;55581;46.718;7.690;2022-11-04T04:03:39;0.47;;;0.10;;
68608;SDS011;55581;46.718;7.690;2022-11-04T04:06:11;1.05;;;0.10;;
68608;SDS011;55581;46.718;7.690;2022-11-04T04:13:48;3.43;;;0.10;;
68608;SDS011;55581;46.718;7.690;2022-11-04T04:19:11;1.23;;;0.10;;
68608;SDS011;55581;46.718;7.690;2022-11-04T04:21:41;0.60;;;0.10;;
68608;SDS011;55581;46.718;7.690;2022-11-04T04:24:11;0.68;;;0.20;;
68608;SDS011;55581;46.718;7.690;2022-11-04T04:26:59;0.70;;;0.10;;
68608;SDS011;55581;46.718;7.690;2022-11-04T04:29:44;1.33;;;0.20;;
68608;SDS011;55581;46.718;7.690;2022-11-04T04:32:11;0.88;;;0.10;;
68608;SDS011;55581;46.718;7.690;2022-11-04T04:34:37;0.52;;;0.10;;
68608;SDS011;55581;46.718;7.690;2022-11-04T04:37:22;0.80;;;0.20;;
68608;SDS011;55581;46.718;7.690;2022-11-04T04:39:52;1.13;;;0.10;;
68608;SDS011;55581;46.718;7.690;2022-11-04T04:42:39;0.63;;;0.10;;
68608;SDS011;55581;46.718;7.690;2022-11-04T04:45:36;0.70;;;0.00;;
68608;SDS011;55581;46.718;7.690;2022-11-04T04:48:07;3.72;;;0.10;;
68608;SDS011;55581;46.718;7.690;2022-11-04T04:50:36;0.80;;;0.10;;
68608;SDS011;55581;46.718;7.690;2022-11-04T04:53:05;0.70;;;0.10;;
68608;SDS011;55581;46.718;7.690;2022-11-04T04:55:31;1.35;;;0.10;;
68608;SDS011;55581;46.718;7.690;2022-11-04T04:57:57;1.47;;;0.10;;
68608;SDS011;55581;46.718;7.690;2022-11-04T05:00:23;0.57;;;0.10;;
68608;SDS011;55581;46.718;7.690;2022-11-04T05:02:49;0.98;;;0.10;;
68608;SDS011;55581;46.718;7.690;2022-11-04T05:05:15;1.30;;;0.10;;
68608;SDS011;55581;46.718;7.690;2022-11-04T05:07:41;1.83;;;0.10;;
68608;SDS011;55581;46.718;7.690;2022-11-04T05:10:12;0.95;;;0.10;;
68608;SDS011;55581;46.718;7.690;2022-11-04T05:12:39;1.05;;;0.13;;
68608;SDS011;55581;46.718;7.690;2022-11-04T05:15:24;2.17;;;0.10;;
68608;SDS011;55581;46.718;7.690;2022-11-04T05:17:54;1.15;;;0.20;;
68608;SDS011;55581;46.718;7.690;2022-11-04T05:20:20;0.60;;;0.10;;
68608;SDS011;55581;46.718;7.690;2022-11-04T05:22:48;0.90;;;0.10;;
68608;SDS011;55581;46.718;7.690;2022-11-04T05:25:14;1.27;;;0.10;;
68608;SDS011;55581;46.718;7.690;2022-11-04T05:27:41;1.35;;;0.13;;
68608;SDS011;55581;46.718;7.690;2022-11-04T05:30:07;1.17;;;0.10;;
68608;SDS011;55581;46.718;7.690;2022-11-04T05:32:33;0.70;;;0.10;;
68608;SDS011;55581;46.718;7.690;2022-11-04T05:34:59;0.60;;;0.10;;
68608;SDS011;55581;46.718;7.690;2022-11-04T05:37:24;0.70;;;0.10;;
68608;SDS011;55581;46.718;7.690;2022-11-04T05:39:50;1.00;;;0.20;;
68608;SDS011;55581;46.718;7.690;2022-11-04T05:42:16;1.87;;;0.10;;
68608;SDS011;55581;46.718;7.690;2022-11-04T05:44:44;0.52;;;0.10;;
68608;SDS011;55581;46.718;7.690;2022-11-04T05:47:10;0.60;;;0.10;;
68608;SDS011;55581;46.718;7.690;2022-11-04T05:49:37;0.77;;;0.13;;
68608;SDS011;55581;46.718;7.690;2022-11-04T05:52:04;3.45;;;0.28;;
68608;SDS011;55581;46.718;7.690;2022-11-04T05:54:29;1.98;;;0.32;;
68608;SDS011;55581;46.718;7.690;2022-11-04T05:56:55;2.27;;;0.37;;
68608;SDS011;55581;46.718;7.690;2022-11-04T05:59:20;2.57;;;0.20;;
68608;SDS011;55581;46.718;7.690;2022-11-04T06:01:48;2.30;;;0.20;;
68608;SDS011;55581;46.718;7.690;2022-11-04T06:04:15;1.53;;;0.20;;
68608;SDS011;55581;46.718;7.690;2022-11-04T06:06:42;1.10;;;0.17;;
68608;SDS011;55581;46.718;7.690;2022-11-04T06:09:07;1.10;;;0.10;;
68608;SDS011;55581;46.718;7.690;2022-11-04T06:11:33;2.13;;;0.60;;
68608;SDS011;55581;46.718;7.690;2022-11-04T06:13:59;1.50;;;0.30;;
68608;SDS011;55581;46.718;7.690;2022-11-04T06:16:25;1.77;;;0.40;;
68608;SDS011;55581;46.718;7.690;2022-11-04T06:18:51;1.40;;;0.20;;
68608;SDS011;55581;46.718;7.690;2022-11-04T06:23:46;1.70;;;0.63;;
68608;SDS011;55581;46.718;7.690;2022-11-04T06:26:11;2.10;;;0.10;;
68608;SDS011;55581;46.718;7.690;2022-11-04T06:28:39;0.90;;;0.10;;
68608;SDS011;55581;46.718;7.690;2022-11-04T06:31:07;1.20;;;0.10;;
68608;SDS011;55581;46.718;7.690;2022-11-04T06:33:34;1.60;;;0.10;;
68608;SDS011;55581;46.718;7.690;2022-11-04T06:36:00;0.90;;;0.10;;
68608;SDS011;55581;46.718;7.690;2022-11-04T06:38:30;0.85;;;0.13;;
68608;SDS011;55581;46.718;7.690;2022-11-04T06:40:59;1.20;;;0.17;;
68608;SDS011;55581;46.718;7.690;2022-11-04T06:43:25;1.13;;;0.10;;
68608;SDS011;55581;46.718;7.690;2022-11-04T06:45:57;1.07;;;0.10;;
68608;SDS011;55581;46.718;7.690;2022-11-04T06:48:24;1.67;;;0.10;;
68608;SDS011;55581;46.718;7.690;2022-11-04T06:50:50;1.25;;;0.20;;
68608;SDS011;55581;46.718;7.690;2022-11-04T06:53:16;2.87;;;0.67;;
68608;SDS011;55581;46.718;7.690;2022-11-04T06:55:41;1.58;;;0.40;;
68608;SDS011;55581;46.718;7.690;2022-11-04T06:58:07;1.50;;;0.20;;
68608;SDS011;55581;46.718;7.690;2022-11-04T07:00:33;1.10;;;0.20;;
68608;SDS011;55581;46.718;7.690;2022-11-04T07:02:59;1.10;;;0.20;;
68608;SDS011;55581;46.718;7.690;2022-11-04T07:05:24;3.20;;;0.10;;
68608;SDS011;55581;46.718;7.690;2022-11-04T07:07:49;0.73;;;0.10;;
68608;SDS011;55581;46.718;7.690;2022-11-04T07:10:15;1.37;;;0.20;;
68608;SDS011;55581;46.718;7.690;2022-11-04T07:12:41;1.50;;;0.40;;
68608;SDS011;55581;46.718;7.690;2022-11-04T07:15:07;2.37;;;0.77;;
68608;SDS011;55581;46.718;7.690;2022-11-04T07:17:35;2.20;;;0.60;;
68608;SDS011;55581;46.718;7.690;2022-11-04T07:20:01;1.60;;;0.22;;
68608;SDS011;55581;46.718;7.690;2022-11-04T07:22:27;1.50;;;0.10;;
68608;SDS011;55581;46.718;7.690;2022-11-04T07:24:52;2.50;;;0.20;;
68608;SDS011;55581;46.718;7.690;2022-11-04T07:27:17;4.50;;;1.50;;
68608;SDS011;55581;46.718;7.690;2022-11-04T07:29:44;1.85;;;0.50;;
68608;SDS011;55581;46.718;7.690;2022-11-04T07:32:11;2.72;;;1.23;;
68608;SDS011;55581;46.718;7.690;2022-11-04T07:34:37;1.40;;;0.20;;
68608;SDS011;55581;46.718;7.690;2022-11-04T07:37:05;1.10;;;0.10;;
68608;SDS011;55581;46.718;7.690;2022-11-04T07:39:30;1.40;;;0.20;;
68608;SDS011;55581;46.718;7.690;2022-11-04T07:41:55;1.13;;;0.20;;
68608;SDS011;55581;46.718;7.690;2022-11-04T07:44:21;1.00;;;0.23;;
68608;SDS011;55581;46.718;7.690;2022-11-04T07:46:47;0.75;;;0.10;;
68608;SDS011;55581;46.718;7.690;2022-11-04T07:49:13;0.63;;;0.10;;
68608;SDS011;55581;46.718;7.690;2022-11-04T07:51:39;1.85;;;0.10;;
68608;SDS011;55581;46.718;7.690;2022-11-04T07:54:05;1.87;;;0.20;;
68608;SDS011;55581;46.718;7.690;2022-11-04T07:56:31;0.80;;;0.10;;
68608;SDS011;55581;46.718;7.690;2022-11-04T07:58:56;0.90;;;0.20;;
68608;SDS011;55581;46.718;7.690;2022-11-04T08:01:22;1.50;;;0.30;;
68608;SDS011;55581;46.718;7.690;2022-11-04T08:03:48;1.38;;;0.20;;
68608;SDS011;55581;46.718;7.690;2022-11-04T08:06:15;1.67;;;0.30;;
68608;SDS011;55581;46.718;7.690;2022-11-04T08:08:41;1.27;;;0.20;;
68608;SDS011;55581;46.718;7.690;2022-11-04T08:11:11;0.90;;;0.10;;
68608;SDS011;55581;46.718;7.690;2022-11-04T08:13:39;1.90;;;0.13;;
68608;SDS011;55581;46.718;7.690;2022-11-04T08:16:08;2.20;;;0.20;;
68608;SDS011;55581;46.718;7.690;2022-11-04T08:18:37;1.03;;;0.20;;
68608;SDS011;55581;46.718;7.690;2022-11-04T08:21:03;1.60;;;0.20;;
68608;SDS011;55581;46.718;7.690;2022-11-04T08:23:29;2.05;;;0.20;;
68608;SDS011;55581;46.718;7.690;2022-11-04T08:25:59;1.15;;;0.20;;
68608;SDS011;55581;46.718;7.690;2022-11-04T08:28:25;1.67;;;0.28;;
68608;SDS011;55581;46.718;7.690;2022-11-04T08:30:55;1.40;;;0.20;;
68608;SDS011;55581;46.718;7.690;2022-11-04T08:33:24;0.88;;;0.15;;
68608;SDS011;55581;46.718;7.690;2022-11-04T08:35:53;0.90;;;0.10;;
68608;SDS011;55581;46.718;7.690;2022-11-04T08:38:23;2.30;;;0.30;;
68608;SDS011;55581;46.718;7.690;2022-11-04T08:40:49;1.00;;;0.10;;
68608;SDS011;55581;46.718;7.690;2022-11-04T08:43:14;1.60;;;0.20;;
68608;SDS011;55581;46.718;7.690;2022-11-04T08:45:40;0.83;;;0.10;;
68608;SDS011;55581;46.718;7.690;2022-11-04T08:48:08;1.85;;;0.20;;
68608;SDS011;55581;46.718;7.690;2022-11-04T08:50:34;1.87;;;0.30;;
68608;SDS011;55581;46.718;7.690;2022-11-04T08:53:00;1.25;;;0.10;;
68608;SDS011;55581;46.718;7.690;2022-11-04T08:55:27;1.60;;;0.20;;
68608;SDS011;55581;46.718;7.690;2022-11-04T08:57:53;1.13;;;0.10;;
68608;SDS011;55581;46.718;7.690;2022-11-04T09:00:18;1.47;;;0.20;;
68608;SDS011;55581;46.718;7.690;2022-11-04T09:02:45;1.48;;;0.20;;
68608;SDS011;55581;46.718;7.690;2022-11-04T09:05:11;1.47;;;0.10;;
68608;SDS011;55581;46.718;7.690;2022-11-04T09:07:38;1.67;;;0.20;;
68608;SDS011;55581;46.718;7.690;2022-11-04T09:10:04;1.88;;;0.25;;
68608;SDS011;55581;46.718;7.690;2022-11-04T09:12:30;1.02;;;0.20;;
68608;SDS011;55581;46.718;7.690;2022-11-04T09:14:56;1.57;;;0.20;;
68608;SDS011;55581;46.718;7.690;2022-11-04T09:17:21;1.57;;;0.10;;
68608;SDS011;55581;46.718;7.690;2022-11-04T09:19:47;0.90;;;0.20;;
68608;SDS011;55581;46.718;7.690;2022-11-04T09:22:13;1.63;;;0.20;;
68608;SDS011;55581;46.718;7.690;2022-11-04T09:24:38;1.40;;;0.20;;
68608;SDS011;55581;46.718;7.690;2022-11-04T09:27:07;1.43;;;0.30;;
68608;SDS011;55581;46.718;7.690;2022-11-04T09:29:32;1.65;;;0.10;;
68608;SDS011;55581;46.718;7.690;2022-11-04T09:32:00;1.25;;;0.20;;
68608;SDS011;55581;46.718;7.690;2022-11-04T09:34:26;1.37;;;0.20;;
68608;SDS011;55581;46.718;7.690;2022-11-04T09:36:53;2.13;;;0.50;;
68608;SDS011;55581;46.718;7.690;2022-11-04T09:39:21;1.53;;;0.30;;
68608;SDS011;55581;46.718;7.690;2022-11-04T09:47:09;1.02;;;0.20;;
68608;SDS011;55581;46.718;7.690;2022-11-04T09:49:38;1.40;;;0.20;;
68608;SDS011;55581;46.718;7.690;2022-11-04T09:52:09;1.43;;;0.20;;
68608;SDS011;55581;46.718;7.690;2022-11-04T09:55:11;1.63;;;0.30;;
68608;SDS011;55581;46.718;7.690;2022-11-04T09:57:44;1.70;;;0.40;;
68608;SDS011;55581;46.718;7.690;2022-11-04T10:00:15;1.75;;;0.20;;
68608;SDS011;55581;46.718;7.690;2022-11-04T10:27:03;1.52;;;0.32;;
68608;SDS011;55581;46.718;7.690;2022-11-04T10:29:37;1.77;;;0.55;;
68608;SDS011;55581;46.718;7.690;2022-11-04T10:32:10;3.20;;;0.63;;
68608;SDS011;55581;46.718;7.690;2022-11-04T10:34:42;2.42;;;0.50;;
68608;SDS011;55581;46.718;7.690;2022-11-04T10:37:12;3.00;;;0.52;;
68608;SDS011;55581;46.718;7.690;2022-11-04T10:39:42;1.50;;;0.30;;
68608;SDS011;55581;46.718;7.690;2022-11-04T10:42:13;1.73;;;0.38;;
68608;SDS011;55581;46.718;7.690;2022-11-04T10:44:46;4.03;;;0.55;;
68608;SDS011;55581;46.718;7.690;2022-11-04T10:52:38;2.70;;;0.40;;
68608;SDS011;55581;46.718;7.690;2022-11-04T10:55:12;1.98;;;0.30;;
68608;SDS011;55581;46.718;7.690;2022-11-04T10:57:45;1.45;;;0.30;;
68608;SDS011;55581;46.718;7.690;2022-11-04T11:00:11;1.83;;;0.20;;
68608;SDS011;55581;46.718;7.690;2022-11-04T11:03:20;2.88;;;0.30;;
68608;SDS011;55581;46.718;7.690;2022-11-04T11:05:46;1.52;;;0.35;;
68608;SDS011;55581;46.718;7.690;2022-11-04T11:08:25;2.13;;;0.30;;
68608;SDS011;55581;46.718;7.690;2022-11-04T11:10:53;1.50;;;0.20;;
68608;SDS011;55581;46.718;7.690;2022-11-04T11:13:26;1.40;;;0.30;;
68608;SDS011;55581;46.718;7.690;2022-11-04T11:16:08;2.40;;;0.30;;
68608;SDS011;55581;46.718;7.690;2022-11-04T11:18:37;1.13;;;0.17;;
68608;SDS011;55581;46.718;7.690;2022-11-04T11:26:02;2.45;;;0.20;;
68608;SDS011;55581;46.718;7.690;2022-11-04T11:28:29;2.00;;;0.30;;
68608;SDS011;55581;46.718;7.690;2022-11-04T11:31:05;2.30;;;0.33;;
68608;SDS011;55581;46.718;7.690;2022-11-04T11:33:37;1.88;;;0.35;;
68608;SDS011;55581;46.718;7.690;2022-11-04T11:36:06;2.17;;;0.40;;
68608;SDS011;55581;46.718;7.690;2022-11-04T11:38:50;1.63;;;0.40;;
68608;SDS011;55581;46.718;7.690;2022-11-04T11:41:19;1.05;;;0.20;;
68608;SDS011;55581;46.718;7.690;2022-11-04T11:43:51;2.30;;;0.30;;
68608;SDS011;55581;46.718;7.690;2022-11-04T11:46:21;2.85;;;0.30;;
68608;SDS011;55581;46.718;7.690;2022-11-04T11:48:55;1.95;;;0.68;;
68608;SDS011;55581;46.718;7.690;2022-11-04T11:51:34;2.03;;;0.40;;
68608;SDS011;55581;46.718;7.690;2022-11-04T11:56:31;1.80;;;0.40;;
68608;SDS011;55581;46.718;7.690;2022-11-04T11:59:07;4.35;;;1.52;;
68608;SDS011;55581;46.718;7.690;2022-11-04T12:01:44;4.88;;;0.80;;
68608;SDS011;55581;46.718;7.690;2022-11-04T12:04:26;3.10;;;0.73;;
68608;SDS011;55581;46.718;7.690;2022-11-04T12:17:36;2.40;;;0.40;;
68608;SDS011;55581;46.718;7.690;2022-11-04T12:20:17;3.45;;;0.80;;
68608;SDS011;55581;46.718;7.690;2022-11-04T12:23:04;2.93;;;1.10;;
68608;SDS011;55581;46.718;7.690;2022-11-04T12:26:01;3.90;;;0.60;;
68608;SDS011;55581;46.718;7.690;2022-11-04T12:33:55;2.08;;;0.40;;
68608;SDS011;55581;46.718;7.690;2022-11-04T12:36:52;2.37;;;0.40;;
68608;SDS011;55581;46.718;7.690;2022-11-04T12:39:55;3.75;;;0.30;;
68608;SDS011;55581;46.718;7.690;2022-11-04T12:48:25;2.08;;;0.35;;
68608;SDS011;55581;46.718;7.690;2022-11-04T12:51:16;6.57;;;0.70;;
68608;SDS011;55581;46.718;7.690;2022-11-04T12:56:42;3.97;;;0.50;;
68608;SDS011;55581;46.718;7.690;2022-11-04T12:59:24;5.17;;;0.60;;
68608;SDS011;55581;46.718;7.690;2022-11-04T13:04:40;2.75;;;0.40;;
68608;SDS011;55581;46.718;7.690;2022-11-04T13:07:18;1.88;;;0.30;;
68608;SDS011;55581;46.718;7.690;2022-11-04T13:09:53;1.67;;;0.30;;
68608;SDS011;55581;46.718;7.690;2022-11-04T13:12:23;1.65;;;0.30;;
68608;SDS011;55581;46.718;7.690;2022-11-04T13:14:58;2.00;;;0.50;;
68608;SDS011;55581;46.718;7.690;2022-11-04T13:17:29;2.53;;;0.50;;
68608;SDS011;55581;46.718;7.690;2022-11-04T13:19:59;2.95;;;0.50;;
68608;SDS011;55581;46.718;7.690;2022-11-04T13:22:31;4.10;;;1.23;;
68608;SDS011;55581;46.718;7.690;2022-11-04T13:27:43;3.05;;;0.57;;
68608;SDS011;55581;46.718;7.690;2022-11-04T13:38:29;3.35;;;0.50;;
68608;SDS011;55581;46.718;7.690;2022-11-04T13:44:00;14.65;;;1.08;;
68608;SDS011;55581;46.718;7.690;2022-11-04T13:46:29;4.75;;;0.77;;
68608;SDS011;55581;46.718;7.690;2022-11-04T13:48:58;3.40;;;0.40;;
68608;SDS011;55581;46.718;7.690;2022-11-04T13:56:54;3.83;;;0.50;;
68608;SDS011;55581;46.718;7.690;2022-11-04T13:59:34;2.90;;;0.60;;
68608;SDS011;55581;46.718;7.690;2022-11-04T14:04:35;3.33;;;0.38;;
68608;SDS011;55581;46.718;7.690;2022-11-04T14:07:02;3.00;;;0.40;;
68608;SDS011;55581;46.718;7.690;2022-11-04T14:14:45;3.93;;;0.80;;
68608;SDS011;55581;46.718;7.690;2022-11-04T14:27:45;1.87;;;0.50;;
68608;SDS011;55581;46.718;7.690;2022-11-04T14:33:01;2.80;;;0.50;;
68608;SDS011;55581;46.718;7.690;2022-11-04T14:35:32;4.90;;;1.17;;
68608;SDS011;55581;46.718;7.690;2022-11-04T14:38:02;3.22;;;0.40;;
68608;SDS011;55581;46.718;7.690;2022-11-04T14:40:51;5.07;;;0.50;;
68608;SDS011;55581;46.718;7.690;2022-11-04T14:43:41;1.95;;;0.30;;
68608;SDS011;55581;46.718;7.690;2022-11-04T14:46:08;4.47;;;0.82;;
68608;SDS011;55581;46.718;7.690;2022-11-04T14:48:40;4.28;;;0.60;;
68608;SDS011;55581;46.718;7.690;2022-11-04T14:51:26;2.45;;;0.30;;
68608;SDS011;55581;46.718;7.690;2022-11-04T14:53:55;4.37;;;0.60;;
68608;SDS011;55581;46.718;7.690;2022-11-04T14:56:29;1.92;;;0.43;;
68608;SDS011;55581;46.718;7.690;2022-11-04T15:01:24;4.47;;;1.00;;
68608;SDS011;55581;46.718;7.690;2022-11-04T15:03:51;2.43;;;0.27;;
68608;SDS011;55581;46.718;7.690;2022-11-04T15:06:27;5.55;;;0.93;;
68608;SDS011;55581;46.718;7.690;2022-11-04T15:08:54;1.48;;;0.38;;
68608;SDS011;55581;46.718;7.690;2022-11-04T15:11:29;1.20;;;0.22;;
68608;SDS011;55581;46.718;7.690;2022-11-04T15:14:23;1.52;;;0.20;;
68608;SDS011;55581;46.718;7.690;2022-11-04T15:16:56;1.70;;;0.23;;
68608;SDS011;55581;46.718;7.690;2022-11-04T15:19:27;1.27;;;0.20;;
68608;SDS011;55581;46.718;7.690;2022-11-04T15:21:54;1.55;;;0.38;;
68608;SDS011;55581;46.718;7.690;2022-11-04T15:24:21;1.58;;;0.20;;
68608;SDS011;55581;46.718;7.690;2022-11-04T15:26:50;2.20;;;0.20;;
68608;SDS011;55581;46.718;7.690;2022-11-04T15:29:17;1.00;;;0.30;;
68608;SDS011;55581;46.718;7.690;2022-11-04T15:32:01;0.80;;;0.10;;
68608;SDS011;55581;46.718;7.690;2022-11-04T15:34:31;1.00;;;0.10;;
68608;SDS011;55581;46.718;7.690;2022-11-04T15:36:58;1.90;;;0.20;;
68608;SDS011;55581;46.718;7.690;2022-11-04T15:39:32;1.20;;;0.10;;
68608;SDS011;55581;46.718;7.690;2022-11-04T15:42:00;2.95;;;0.20;;
68608;SDS011;55581;46.718;7.690;2022-11-04T15:44:51;2.47;;;0.15;;
68608;SDS011;55581;46.718;7.690;2022-11-04T15:49:52;0.88;;;0.17;;
68608;SDS011;55581;46.718;7.690;2022-11-04T15:52:28;1.98;;;0.35;;
68608;SDS011;55581;46.718;7.690;2022-11-04T15:54:57;2.38;;;0.32;;
68608;SDS011;55581;46.718;7.690;2022-11-04T15:57:30;1.65;;;0.30;;
68608;SDS011;55581;46.718;7.690;2022-11-04T16:02:34;1.20;;;0.20;;
68608;SDS011;55581;46.718;7.690;2022-11-04T16:07:37;1.52;;;0.20;;
68608;SDS011;55581;46.718;7.690;2022-11-04T16:15:39;1.02;;;0.10;;
68608;SDS011;55581;46.718;7.690;2022-11-04T16:20:50;1.63;;;0.20;;
68608;SDS011;55581;46.718;7.690;2022-11-04T16:23:18;1.27;;;0.10;;
68608;SDS011;55581;46.718;7.690;2022-11-04T16:26:00;1.10;;;0.27;;
68608;SDS011;55581;46.718;7.690;2022-11-04T16:28:30;2.38;;;0.30;;
68608;SDS011;55581;46.718;7.690;2022-11-04T16:31:03;1.73;;;0.30;;
68608;SDS011;55581;46.718;7.690;2022-11-04T16:33:50;1.95;;;0.30;;
68608;SDS011;55581;46.718;7.690;2022-11-04T16:36:16;4.65;;;0.50;;
68608;SDS011;55581;46.718;7.690;2022-11-04T16:38:59;1.07;;;0.10;;
68608;SDS011;55581;46.718;7.690;2022-11-04T16:41:34;1.05;;;0.10;;
68608;SDS011;55581;46.718;7.690;2022-11-04T16:44:02;1.58;;;0.22;;
68608;SDS011;55581;46.718;7.690;2022-11-04T16:46:30;1.60;;;0.20;;
68608;SDS011;55581;46.718;7.690;2022-11-04T16:48:58;1.50;;;0.20;;
68608;SDS011;55581;46.718;7.690;2022-11-04T16:51:24;0.83;;;0.10;;
68608;SDS011;55581;46.718;7.690;2022-11-04T16:53:50;1.23;;;0.10;;
68608;SDS011;55581;46.718;7.690;2022-11-04T16:56:18;1.48;;;0.28;;
68608;SDS011;55581;46.718;7.690;2022-11-04T16:58:45;0.98;;;0.13;;
68608;SDS011;55581;46.718;7.690;2022-11-04T17:01:11;1.00;;;0.20;;
68608;SDS011;55581;46.718;7.690;2022-11-04T17:03:41;1.02;;;0.10;;
68608;SDS011;55581;46.718;7.690;2022-11-04T17:06:07;0.93;;;0.10;;
68608;SDS011;55581;46.718;7.690;2022-11-04T17:08:36;1.40;;;0.13;;
68608;SDS011;55581;46.718;7.690;2022-11-04T17:11:02;3.67;;;0.30;;
68608;SDS011;55581;46.718;7.690;2022-11-04T17:13:28;0.70;;;0.10;;
68608;SDS011;55581;46.718;7.690;2022-11-04T17:15:53;1.77;;;0.10;;
68608;SDS011;55581;46.718;7.690;2022-11-04T17:18:19;1.00;;;0.10;;
68608;SDS011;55581;46.718;7.690;2022-11-04T17:20:51;1.93;;;0.10;;
68608;SDS011;55581;46.718;7.690;2022-11-04T17:23:18;1.67;;;0.22;;
68608;SDS011;55581;46.718;7.690;2022-11-04T17:25:47;2.20;;;0.30;;
68608;SDS011;55581;46.718;7.690;2022-11-04T17:28:15;0.98;;;0.10;;
68608;SDS011;55581;46.718;7.690;2022-11-04T17:30:41;1.00;;;0.17;;
68608;SDS011;55581;46.718;7.690;2022-11-04T17:33:14;0.97;;;0.10;;
68608;SDS011;55581;46.718;7.690;2022-11-04T17:35:43;3.53;;;0.20;;
68608;SDS011;55581;46.718;7.690;2022-11-04T17:38:12;1.40;;;0.32;;
68608;SDS011;55581;46.718;7.690;2022-11-04T17:40:38;0.98;;;0.10;;
68608;SDS011;55581;46.718;7.690;2022-11-04T17:43:23;1.13;;;0.20;;
68608;SDS011;55581;46.718;7.690;2022-11-04T17:46:07;1.00;;;0.10;;
68608;SDS011;55581;46.718;7.690;2022-11-04T17:48:52;1.17;;;0.10;;
68608;SDS011;55581;46.718;7.690;2022-11-04T17:51:18;1.13;;;0.10;;
68608;SDS011;55581;46.718;7.690;2022-11-04T17:53:45;1.45;;;0.20;;
68608;SDS011;55581;46.718;7.690;2022-11-04T17:56:18;2.67;;;0.75;;
68608;SDS011;55581;46.718;7.690;2022-11-04T17:58:45;1.75;;;0.32;;
68608;SDS011;55581;46.718;7.690;2022-11-04T18:01:11;5.32;;;1.15;;
68608;SDS011;55581;46.718;7.690;2022-11-04T18:03:38;2.97;;;0.40;;
68608;SDS011;55581;46.718;7.690;2022-11-04T18:06:07;3.85;;;1.40;;
68608;SDS011;55581;46.718;7.690;2022-11-04T18:08:33;6.03;;;2.00;;
68608;SDS011;55581;46.718;7.690;2022-11-04T18:10:59;7.40;;;2.50;;